Eems Trader — V2DE3 — position and weather

sailwx.info

Track history (hours):
 
Tides and Currents Weather Stations Pressure Air Temp Water Temp Dewpoint Dewpoint Depression Visibility Wind Speed Wind Dir Waves Ship Positions

Eems Trader

Last reported at 2014-Dec-19 19:27 UTC. Time now 2014-Dec-22 22:45 UTC.
Position N 40°01' E 007°57'.

; draft 3 m.

Type: Cargo ship. MMSI: 305182000.

Date/timePositionNaut miles runAvg speedWind from/ knotsBaromVisibWave heightAir tempDewpointWater temp
2014-Dec-19 19:27N 40°01' E 007°57'10 7.9
2014-Dec-19 18:11N 39°54' E 008°06'5 8.4
2014-Dec-19 17:33N 39°50' E 008°11'  
2014-Dec-16 23:14N 43°09' E 005°04'6 8.2
2014-Dec-16 22:33N 43°14' E 005°01'9 8.7
2014-Dec-16 21:34N 43°22' E 004°57'6 5.9
2014-Dec-16 20:32N 43°23' E 004°49'0 0.2
2014-Dec-16 19:33N 43°23' E 004°48'  
2014-Dec-13 18:22N 43°35' E 004°41'13 6.4
2014-Dec-13 16:22N 43°23' E 004°48'1 1.6
2014-Dec-13 15:33N 43°23' E 004°50'7 7.1
2014-Dec-13 14:34N 43°21' E 004°59'6 6.2
2014-Dec-13 13:34N 43°15' E 005°01'262 7.7
2014-Dec-12 03:25N 39°28' E 007°55'5 4.3
2014-Dec-12 02:14N 39°23' E 007°58'33 1.3
2014-Dec-11 00:19N 39°01' E 008°29'10 4.3
2014-Dec-10 22:05N 39°03' E 008°17'21 8.3
2014-Dec-10 19:32N 39°24' E 008°15'20 9.7
2014-Dec-10 17:31N 39°43' E 008°21'13 1.6
2014-Dec-10 09:23N 39°52' E 008°34'0 0.0
2014-Dec-10 08:23N 39°52' E 008°34'0 0.0
2014-Dec-10 07:23N 39°52' E 008°34'0 0.0
2014-Dec-10 06:14N 39°52' E 008°34'0 0.0
2014-Dec-10 05:29N 39°52' E 008°34'0 0.0
2014-Dec-10 04:26N 39°52' E 008°34'0 0.0
2014-Dec-10 03:23N 39°52' E 008°34'0 0.0
2014-Dec-10 02:05N 39°52' E 008°34'0 0.0
2014-Dec-10 01:29N 39°52' E 008°34'0 0.0
2014-Dec-09 23:29N 39°52' E 008°34'0 0.0
2014-Dec-09 19:29N 39°52' E 008°34'  
Track history (hours):
 
Tides and Currents Weather Stations Pressure Air Temp Water Temp Dewpoint Dewpoint Depression Visibility Wind Speed Wind Dir Waves Ship Positions

Eems Trader

Last reported at 2014-Dec-19 19:27 UTC. Time now 2014-Dec-22 22:45 UTC.
Position N 40°01' E 007°57'.

; draft 3 m.

Type: Cargo ship. MMSI: 305182000.

Date/timePositionNaut miles runAvg speedWind from/ knotsBaromVisibWave heightAir tempDewpointWater temp
2014-Dec-19 19:27N 40°01' E 007°57'10 7.9
2014-Dec-19 18:11N 39°54' E 008°06'5 8.4
2014-Dec-19 17:33N 39°50' E 008°11'  
2014-Dec-16 23:14N 43°09' E 005°04'6 8.2
2014-Dec-16 22:33N 43°14' E 005°01'9 8.7
2014-Dec-16 21:34N 43°22' E 004°57'6 5.9
2014-Dec-16 20:32N 43°23' E 004°49'0 0.2
2014-Dec-16 19:33N 43°23' E 004°48'  
2014-Dec-13 18:22N 43°35' E 004°41'13 6.4
2014-Dec-13 16:22N 43°23' E 004°48'1 1.6
2014-Dec-13 15:33N 43°23' E 004°50'7 7.1
2014-Dec-13 14:34N 43°21' E 004°59'6 6.2
2014-Dec-13 13:34N 43°15' E 005°01'262 7.7
2014-Dec-12 03:25N 39°28' E 007°55'5 4.3
2014-Dec-12 02:14N 39°23' E 007°58'33 1.3
2014-Dec-11 00:19N 39°01' E 008°29'10 4.3
2014-Dec-10 22:05N 39°03' E 008°17'21 8.3
2014-Dec-10 19:32N 39°24' E 008°15'20 9.7
2014-Dec-10 17:31N 39°43' E 008°21'13 1.6
2014-Dec-10 09:23N 39°52' E 008°34'0 0.0
2014-Dec-10 08:23N 39°52' E 008°34'0 0.0
2014-Dec-10 07:23N 39°52' E 008°34'0 0.0
2014-Dec-10 06:14N 39°52' E 008°34'0 0.0
2014-Dec-10 05:29N 39°52' E 008°34'0 0.0
2014-Dec-10 04:26N 39°52' E 008°34'0 0.0
2014-Dec-10 03:23N 39°52' E 008°34'0 0.0
2014-Dec-10 02:05N 39°52' E 008°34'0 0.0
2014-Dec-10 01:29N 39°52' E 008°34'0 0.0
2014-Dec-09 23:29N 39°52' E 008°34'0 0.0
2014-Dec-09 19:29N 39°52' E 008°34'  

Dump ship's entire track history